sensor_id;sensor_type;location;lat;lon;timestamp;pressure;altitude;pressure_sealevel;temperature;humidity
61710;BME280;47633;51.494;5.386;2023-08-20T00:02:23;102016.78;;;24.36;59.44
61710;BME280;47633;51.494;5.386;2023-08-20T00:04:48;102009.63;;;24.36;59.40
61710;BME280;47633;51.494;5.386;2023-08-20T00:07:14;102012.44;;;24.35;58.84
61710;BME280;47633;51.494;5.386;2023-08-20T00:09:43;102005.41;;;24.34;58.79
61710;BME280;47633;51.494;5.386;2023-08-20T00:12:08;102003.59;;;24.34;59.19
61710;BME280;47633;51.494;5.386;2023-08-20T00:15:06;102002.75;;;24.34;59.29
61710;BME280;47633;51.494;5.386;2023-08-20T00:17:32;101997.28;;;24.35;58.94
61710;BME280;47633;51.494;5.386;2023-08-20T00:19:58;101996.59;;;24.33;59.04
61710;BME280;47633;51.494;5.386;2023-08-20T00:22:24;101996.59;;;24.33;58.60
61710;BME280;47633;51.494;5.386;2023-08-20T00:24:51;101997.56;;;24.32;58.80
61710;BME280;47633;51.494;5.386;2023-08-20T00:27:17;101997.69;;;24.31;58.73
61710;BME280;47633;51.494;5.386;2023-08-20T00:29:43;102004.72;;;24.32;58.76
61710;BME280;47633;51.494;5.386;2023-08-20T00:32:08;102004.72;;;24.32;58.61
61710;BME280;47633;51.494;5.386;2023-08-20T00:34:34;102011.88;;;24.31;58.42
61710;BME280;47633;51.494;5.386;2023-08-20T00:37:00;102012.00;;;24.30;58.56
61710;BME280;47633;51.494;5.386;2023-08-20T00:39:25;102015.63;;;24.29;58.56
61710;BME280;47633;51.494;5.386;2023-08-20T00:41:51;102021.78;;;24.29;58.37
61710;BME280;47633;51.494;5.386;2023-08-20T00:44:16;102030.66;;;24.30;58.38
61710;BME280;47633;51.494;5.386;2023-08-20T00:46:41;102038.78;;;24.28;58.41
61710;BME280;47633;51.494;5.386;2023-08-20T00:49:07;102044.09;;;24.28;58.28
61710;BME280;47633;51.494;5.386;2023-08-20T00:51:33;102038.09;;;24.26;58.84
61710;BME280;47633;51.494;5.386;2023-08-20T00:53:59;102041.44;;;24.28;58.64
61710;BME280;47633;51.494;5.386;2023-08-20T00:56:25;102035.28;;;24.27;58.42
61710;BME280;47633;51.494;5.386;2023-08-20T00:58:53;102046.91;;;24.26;58.18
61710;BME280;47633;51.494;5.386;2023-08-20T01:01:18;102050.53;;;24.25;58.37
61710;BME280;47633;51.494;5.386;2023-08-20T01:03:43;102061.19;;;24.25;58.34
61710;BME280;47633;51.494;5.386;2023-08-20T01:09:03;102074.66;;;24.24;58.65
61710;BME280;47633;51.494;5.386;2023-08-20T01:11:37;102073.69;;;24.25;58.42
61710;BME280;47633;51.494;5.386;2023-08-20T01:14:14;102082.63;;;24.24;58.27
61710;BME280;47633;51.494;5.386;2023-08-20T01:16:40;102087.00;;;24.25;58.38
61710;BME280;47633;51.494;5.386;2023-08-20T01:19:07;102083.50;;;24.24;58.25
61710;BME280;47633;51.494;5.386;2023-08-20T01:21:38;102073.81;;;24.23;58.30
61710;BME280;47633;51.494;5.386;2023-08-20T01:27:51;102067.66;;;24.23;58.50
61710;BME280;47633;51.494;5.386;2023-08-20T01:30:18;102061.47;;;24.22;58.13
61710;BME280;47633;51.494;5.386;2023-08-20T01:32:46;102066.78;;;24.22;58.22
61710;BME280;47633;51.494;5.386;2023-08-20T01:35:13;102070.44;;;24.21;58.02
61710;BME280;47633;51.494;5.386;2023-08-20T01:37:41;102065.13;;;24.21;58.29
61710;BME280;47633;51.494;5.386;2023-08-20T01:40:08;102064.25;;;24.21;58.22
61710;BME280;47633;51.494;5.386;2023-08-20T01:42:38;102071.41;;;24.20;58.07
61710;BME280;47633;51.494;5.386;2023-08-20T01:45:04;102072.38;;;24.19;58.43
61710;BME280;47633;51.494;5.386;2023-08-20T01:47:30;102069.72;;;24.19;58.05
61710;BME280;47633;51.494;5.386;2023-08-20T01:49:56;102065.25;;;24.20;57.92
61710;BME280;47633;51.494;5.386;2023-08-20T01:52:21;102068.75;;;24.20;58.30
61710;BME280;47633;51.494;5.386;2023-08-20T01:54:48;102075.03;;;24.19;58.48
61710;BME280;47633;51.494;5.386;2023-08-20T01:57:13;102072.53;;;24.18;58.42
61710;BME280;47633;51.494;5.386;2023-08-20T01:59:39;102079.53;;;24.19;58.00
61710;BME280;47633;51.494;5.386;2023-08-20T02:02:04;102090.19;;;24.19;58.20
61710;BME280;47633;51.494;5.386;2023-08-20T02:04:31;102088.50;;;24.18;58.45
61710;BME280;47633;51.494;5.386;2023-08-20T02:06:56;102083.16;;;24.18;58.54
61710;BME280;47633;51.494;5.386;2023-08-20T02:09:22;102089.38;;;24.18;57.98
61710;BME280;47633;51.494;5.386;2023-08-20T02:11:47;102094.69;;;24.18;58.50
61710;BME280;47633;51.494;5.386;2023-08-20T02:14:12;102091.16;;;24.18;58.25
61710;BME280;47633;51.494;5.386;2023-08-20T02:16:38;102100.00;;;24.18;58.18
61710;BME280;47633;51.494;5.386;2023-08-20T02:19:03;102100.00;;;24.18;58.29
61710;BME280;47633;51.494;5.386;2023-08-20T02:21:30;102098.31;;;24.17;58.29
61710;BME280;47633;51.494;5.386;2023-08-20T02:23:56;102099.28;;;24.16;58.27
61710;BME280;47633;51.494;5.386;2023-08-20T02:26:21;102101.81;;;24.18;57.98
61710;BME280;47633;51.494;5.386;2023-08-20T02:28:46;102101.13;;;24.16;57.95
61710;BME280;47633;51.494;5.386;2023-08-20T02:31:12;102096.63;;;24.16;58.11
61710;BME280;47633;51.494;5.386;2023-08-20T02:33:37;102093.97;;;24.16;58.28
61710;BME280;47633;51.494;5.386;2023-08-20T02:36:03;102094.81;;;24.17;57.95
61710;BME280;47633;51.494;5.386;2023-08-20T02:38:29;102083.31;;;24.16;58.45
61710;BME280;47633;51.494;5.386;2023-08-20T02:40:54;102086.97;;;24.15;58.14
61710;BME280;47633;51.494;5.386;2023-08-20T02:43:20;102082.47;;;24.16;58.41
61710;BME280;47633;51.494;5.386;2023-08-20T02:45:45;102089.63;;;24.15;57.89
61710;BME280;47633;51.494;5.386;2023-08-20T02:48:11;102088.63;;;24.16;58.20
61710;BME280;47633;51.494;5.386;2023-08-20T02:50:36;102092.28;;;24.15;58.01
61710;BME280;47633;51.494;5.386;2023-08-20T02:53:02;102085.13;;;24.16;57.99
61710;BME280;47633;51.494;5.386;2023-08-20T02:55:28;102087.94;;;24.14;57.90
61710;BME280;47633;51.494;5.386;2023-08-20T02:57:53;102079.94;;;24.14;57.77
61710;BME280;47633;51.494;5.386;2023-08-20T03:00:19;102077.28;;;24.14;58.00
61710;BME280;47633;51.494;5.386;2023-08-20T03:02:44;102078.25;;;24.13;57.70
61710;BME280;47633;51.494;5.386;2023-08-20T03:05:10;102082.59;;;24.14;58.12
61710;BME280;47633;51.494;5.386;2023-08-20T03:07:35;102079.94;;;24.14;58.08
61710;BME280;47633;51.494;5.386;2023-08-20T03:10:00;102075.59;;;24.13;57.56
61710;BME280;47633;51.494;5.386;2023-08-20T03:12:26;102079.94;;;24.14;57.68
61710;BME280;47633;51.494;5.386;2023-08-20T03:14:51;102070.41;;;24.12;57.95
61710;BME280;47633;51.494;5.386;2023-08-20T03:17:16;102073.91;;;24.12;57.63
61710;BME280;47633;51.494;5.386;2023-08-20T03:19:57;102068.84;;;24.09;57.65
61710;BME280;47633;51.494;5.386;2023-08-20T03:22:24;102073.09;;;24.12;57.84
61710;BME280;47633;51.494;5.386;2023-08-20T03:24:50;102075.75;;;24.12;57.62
61710;BME280;47633;51.494;5.386;2023-08-20T03:27:16;102074.88;;;24.11;57.77
61710;BME280;47633;51.494;5.386;2023-08-20T03:29:42;102076.72;;;24.11;57.36
61710;BME280;47633;51.494;5.386;2023-08-20T03:32:07;102082.03;;;24.11;57.91
61710;BME280;47633;51.494;5.386;2023-08-20T03:34:32;102076.72;;;24.11;57.46
61710;BME280;47633;51.494;5.386;2023-08-20T03:36:58;102069.69;;;24.09;57.30
61710;BME280;47633;51.494;5.386;2023-08-20T03:39:23;102071.53;;;24.09;57.78
61710;BME280;47633;51.494;5.386;2023-08-20T03:41:50;102066.19;;;24.09;57.38
61710;BME280;47633;51.494;5.386;2023-08-20T03:44:15;102074.31;;;24.07;57.76
61710;BME280;47633;51.494;5.386;2023-08-20T03:46:40;102075.16;;;24.08;57.71
61710;BME280;47633;51.494;5.386;2023-08-20T03:49:06;102073.34;;;24.08;57.68
61710;BME280;47633;51.494;5.386;2023-08-20T03:51:31;102079.66;;;24.07;57.10
61710;BME280;47633;51.494;5.386;2023-08-20T03:53:56;102084.00;;;24.08;57.68
61710;BME280;47633;51.494;5.386;2023-08-20T03:56:22;102088.47;;;24.08;57.36
61710;BME280;47633;51.494;5.386;2023-08-20T03:58:47;102084.13;;;24.07;57.32
61710;BME280;47633;51.494;5.386;2023-08-20T04:01:12;102073.88;;;24.02;57.35
61710;BME280;47633;51.494;5.386;2023-08-20T04:03:37;102089.47;;;24.07;57.22
61710;BME280;47633;51.494;5.386;2023-08-20T04:06:03;102094.91;;;24.05;57.55
61710;BME280;47633;51.494;5.386;2023-08-20T04:08:28;102095.88;;;24.04;57.50
61710;BME280;47633;51.494;5.386;2023-08-20T04:10:54;102095.88;;;24.04;57.36
61710;BME280;47633;51.494;5.386;2023-08-20T04:13:19;102100.38;;;24.04;56.91
61710;BME280;47633;51.494;5.386;2023-08-20T04:15:44;102101.22;;;24.04;57.46
61710;BME280;47633;51.494;5.386;2023-08-20T04:18:10;102098.56;;;24.04;57.43
61710;BME280;47633;51.494;5.386;2023-08-20T04:20:36;102095.06;;;24.04;57.31
61710;BME280;47633;51.494;5.386;2023-08-20T04:23:01;102097.72;;;24.04;57.28
61710;BME280;47633;51.494;5.386;2023-08-20T04:25:26;102103.03;;;24.04;57.09
61710;BME280;47633;51.494;5.386;2023-08-20T04:27:52;102106.69;;;24.03;56.85
61710;BME280;47633;51.494;5.386;2023-08-20T04:30:17;102104.84;;;24.03;57.19
61710;BME280;47633;51.494;5.386;2023-08-20T04:32:43;102109.34;;;24.03;57.13
61710;BME280;47633;51.494;5.386;2023-08-20T04:35:08;102111.16;;;24.02;56.89
61710;BME280;47633;51.494;5.386;2023-08-20T04:37:33;102112.00;;;24.03;56.86
61710;BME280;47633;51.494;5.386;2023-08-20T04:39:59;102114.78;;;24.01;56.85
61710;BME280;47633;51.494;5.386;2023-08-20T04:42:24;102117.44;;;24.01;56.97
61710;BME280;47633;51.494;5.386;2023-08-20T04:44:49;102113.81;;;24.02;57.07
61710;BME280;47633;51.494;5.386;2023-08-20T04:47:15;102104.13;;;24.01;57.12
61710;BME280;47633;51.494;5.386;2023-08-20T04:49:40;102105.97;;;24.01;56.68
61710;BME280;47633;51.494;5.386;2023-08-20T04:52:06;102108.63;;;24.01;56.85
61710;BME280;47633;51.494;5.386;2023-08-20T04:54:31;102118.41;;;24.00;56.85
61710;BME280;47633;51.494;5.386;2023-08-20T04:56:56;102116.63;;;24.01;56.78
61710;BME280;47633;51.494;5.386;2023-08-20T04:59:22;102114.09;;;23.99;56.61
61710;BME280;47633;51.494;5.386;2023-08-20T05:01:47;102114.94;;;24.00;56.75
61710;BME280;47633;51.494;5.386;2023-08-20T05:04:13;102122.91;;;24.00;56.76
61710;BME280;47633;51.494;5.386;2023-08-20T05:06:38;102131.72;;;24.00;56.47
61710;BME280;47633;51.494;5.386;2023-08-20T05:09:03;102123.03;;;23.98;57.01
61710;BME280;47633;51.494;5.386;2023-08-20T05:11:29;102118.69;;;23.97;56.90
61710;BME280;47633;51.494;5.386;2023-08-20T05:13:58;102121.34;;;23.97;56.82
61710;BME280;47633;51.494;5.386;2023-08-20T05:16:23;102125.72;;;23.98;56.94
61710;BME280;47633;51.494;5.386;2023-08-20T05:18:49;102130.19;;;23.98;56.82
61710;BME280;47633;51.494;5.386;2023-08-20T05:21:14;102128.50;;;23.97;56.56
61710;BME280;47633;51.494;5.386;2023-08-20T05:23:40;102132.88;;;23.98;56.70
61710;BME280;47633;51.494;5.386;2023-08-20T05:26:06;102130.34;;;23.96;56.61
61710;BME280;47633;51.494;5.386;2023-08-20T05:28:32;102142.66;;;23.97;56.78
61710;BME280;47633;51.494;5.386;2023-08-20T05:30:58;102139.16;;;23.97;56.80
61710;BME280;47633;51.494;5.386;2023-08-20T05:33:24;102141.81;;;23.97;56.76
61710;BME280;47633;51.494;5.386;2023-08-20T05:35:49;102142.78;;;23.96;56.89
61710;BME280;47633;51.494;5.386;2023-08-20T05:38:15;102140.13;;;23.96;56.58
61710;BME280;47633;51.494;5.386;2023-08-20T05:40:40;102140.13;;;23.96;56.89
61710;BME280;47633;51.494;5.386;2023-08-20T05:43:06;102136.50;;;23.97;56.90
61710;BME280;47633;51.494;5.386;2023-08-20T05:45:31;102145.44;;;23.96;56.92
61710;BME280;47633;51.494;5.386;2023-08-20T05:47:57;102145.44;;;23.96;57.08
61710;BME280;47633;51.494;5.386;2023-08-20T05:50:22;102145.59;;;23.94;56.38
61710;BME280;47633;51.494;5.386;2023-08-20T05:52:48;102148.09;;;23.96;57.00
61710;BME280;47633;51.494;5.386;2023-08-20T05:55:14;102146.44;;;23.95;56.53
61710;BME280;47633;51.494;5.386;2023-08-20T05:57:39;102139.28;;;23.95;56.79
61710;BME280;47633;51.494;5.386;2023-08-20T06:00:05;102142.78;;;23.96;57.04
61710;BME280;47633;51.494;5.386;2023-08-20T06:02:30;102137.44;;;23.96;56.89
61710;BME280;47633;51.494;5.386;2023-08-20T06:04:55;102136.75;;;23.94;56.72
61710;BME280;47633;51.494;5.386;2023-08-20T06:07:21;102135.09;;;23.93;56.96
61710;BME280;47633;51.494;5.386;2023-08-20T06:09:46;102142.78;;;23.96;57.01
61710;BME280;47633;51.494;5.386;2023-08-20T06:12:12;102134.78;;;23.96;56.67
61710;BME280;47633;51.494;5.386;2023-08-20T06:14:37;102133.13;;;23.95;56.86
61710;BME280;47633;51.494;5.386;2023-08-20T06:17:03;102134.09;;;23.94;57.13
61710;BME280;47633;51.494;5.386;2023-08-20T06:19:28;102137.63;;;23.94;56.77
61710;BME280;47633;51.494;5.386;2023-08-20T06:21:54;102139.28;;;23.95;56.82
61710;BME280;47633;51.494;5.386;2023-08-20T06:24:19;102138.56;;;23.93;57.19
61710;BME280;47633;51.494;5.386;2023-08-20T06:26:45;102133.25;;;23.93;56.98
61710;BME280;47633;51.494;5.386;2023-08-20T06:29:10;102141.25;;;23.93;57.00
61710;BME280;47633;51.494;5.386;2023-08-20T06:31:36;102137.63;;;23.94;56.86
61710;BME280;47633;51.494;5.386;2023-08-20T06:34:01;102138.56;;;23.93;56.93
61710;BME280;47633;51.494;5.386;2023-08-20T06:36:27;102146.31;;;23.96;57.03
61710;BME280;47633;51.494;5.386;2023-08-20T06:38:52;102142.06;;;23.94;57.03
61710;BME280;47633;51.494;5.386;2023-08-20T06:41:18;102147.28;;;23.95;57.50
61710;BME280;47633;51.494;5.386;2023-08-20T06:43:43;102149.81;;;23.97;57.43
61710;BME280;47633;51.494;5.386;2023-08-20T06:46:08;102149.81;;;23.97;57.02
61710;BME280;47633;51.494;5.386;2023-08-20T06:48:34;102140.97;;;23.96;56.96
61710;BME280;47633;51.494;5.386;2023-08-20T06:51:08;102156.09;;;23.96;57.30
61710;BME280;47633;51.494;5.386;2023-08-20T06:53:35;102155.13;;;23.97;57.15
61710;BME280;47633;51.494;5.386;2023-08-20T06:56:00;102144.75;;;23.94;57.21
61710;BME280;47633;51.494;5.386;2023-08-20T06:58:26;102150.63;;;23.97;57.20
61710;BME280;47633;51.494;5.386;2023-08-20T07:00:51;102149.66;;;23.98;57.07
61710;BME280;47633;51.494;5.386;2023-08-20T07:03:16;102147.00;;;23.98;57.19
61710;BME280;47633;51.494;5.386;2023-08-20T07:05:42;102155.81;;;23.99;57.63
61710;BME280;47633;51.494;5.386;2023-08-20T07:08:08;102153.16;;;23.99;57.84
61710;BME280;47633;51.494;5.386;2023-08-20T07:10:33;102161.03;;;24.00;57.90
61710;BME280;47633;51.494;5.386;2023-08-20T07:12:58;102161.88;;;24.01;57.75
61710;BME280;47633;51.494;5.386;2023-08-20T07:15:24;102162.59;;;24.03;57.61
61710;BME280;47633;51.494;5.386;2023-08-20T07:17:49;102164.56;;;24.01;57.93
61710;BME280;47633;51.494;5.386;2023-08-20T07:20:14;102167.22;;;24.01;57.88
61710;BME280;47633;51.494;5.386;2023-08-20T07:22:40;102160.91;;;24.02;58.21
61710;BME280;47633;51.494;5.386;2023-08-20T07:25:05;102161.75;;;24.02;57.78
61710;BME280;47633;51.494;5.386;2023-08-20T07:27:30;102160.63;;;24.05;58.41
61710;BME280;47633;51.494;5.386;2023-08-20T07:29:56;102171.88;;;24.08;58.29
61710;BME280;47633;51.494;5.386;2023-08-20T07:32:22;102166.59;;;24.18;58.13
61710;BME280;47633;51.494;5.386;2023-08-20T07:34:48;102166.78;;;24.26;58.00
61710;BME280;47633;51.494;5.386;2023-08-20T07:37:13;102155.00;;;24.29;57.80
61710;BME280;47633;51.494;5.386;2023-08-20T07:39:38;102166.25;;;24.33;57.49
61710;BME280;47633;51.494;5.386;2023-08-20T07:42:05;102165.09;;;24.35;57.82
61710;BME280;47633;51.494;5.386;2023-08-20T07:44:31;102164.28;;;24.35;57.53
61710;BME280;47633;51.494;5.386;2023-08-20T07:46:56;102165.25;;;24.34;57.85
61710;BME280;47633;51.494;5.386;2023-08-20T07:49:22;102172.13;;;24.36;57.52
61710;BME280;47633;51.494;5.386;2023-08-20T07:51:47;102175.38;;;24.40;57.29
61710;BME280;47633;51.494;5.386;2023-08-20T07:54:13;102170.91;;;24.40;57.59
61710;BME280;47633;51.494;5.386;2023-08-20T07:56:39;102182.25;;;24.42;57.46
61710;BME280;47633;51.494;5.386;2023-08-20T07:59:04;102179.31;;;24.45;57.29
61710;BME280;47633;51.494;5.386;2023-08-20T08:01:29;102185.63;;;24.44;57.51
61710;BME280;47633;51.494;5.386;2023-08-20T08:03:55;102182.97;;;24.44;57.65
61710;BME280;47633;51.494;5.386;2023-08-20T08:06:20;102182.00;;;24.45;57.57
61710;BME280;47633;51.494;5.386;2023-08-20T08:08:51;102179.31;;;24.45;57.61
61710;BME280;47633;51.494;5.386;2023-08-20T08:11:17;102173.88;;;24.47;57.38
61710;BME280;47633;51.494;5.386;2023-08-20T08:13:43;102193.22;;;24.49;57.17
61710;BME280;47633;51.494;5.386;2023-08-20T08:16:08;102187.63;;;24.52;57.13
61710;BME280;47633;51.494;5.386;2023-08-20T08:18:34;102193.66;;;24.54;56.92
61710;BME280;47633;51.494;5.386;2023-08-20T08:21:00;102196.06;;;24.57;57.18
61710;BME280;47633;51.494;5.386;2023-08-20T08:23:25;102195.34;;;24.55;57.15
61710;BME280;47633;51.494;5.386;2023-08-20T08:25:52;102193.41;;;24.57;57.58
61710;BME280;47633;51.494;5.386;2023-08-20T08:28:19;102196.53;;;24.62;57.49
61710;BME280;47633;51.494;5.386;2023-08-20T08:30:45;102195.69;;;24.62;57.29
61710;BME280;47633;51.494;5.386;2023-08-20T08:33:10;102191.03;;;24.64;57.04
61710;BME280;47633;51.494;5.386;2023-08-20T08:35:39;102190.34;;;24.62;56.89
61710;BME280;47633;51.494;5.386;2023-08-20T08:38:04;102198.19;;;24.63;57.11
61710;BME280;47633;51.494;5.386;2023-08-20T08:40:30;102192.19;;;24.61;56.94
61710;BME280;47633;51.494;5.386;2023-08-20T08:42:55;102201.88;;;24.62;56.87
61710;BME280;47633;51.494;5.386;2023-08-20T08:45:24;102195.28;;;24.67;56.84
61710;BME280;47633;51.494;5.386;2023-08-20T08:47:53;102196.38;;;24.64;56.91
61710;BME280;47633;51.494;5.386;2023-08-20T08:50:19;102199.03;;;24.64;56.93
61710;BME280;47633;51.494;5.386;2023-08-20T08:52:45;102199.91;;;24.65;56.66
61710;BME280;47633;51.494;5.386;2023-08-20T08:55:13;102199.03;;;24.64;56.86
61710;BME280;47633;51.494;5.386;2023-08-20T08:57:41;102201.44;;;24.67;57.06
61710;BME280;47633;51.494;5.386;2023-08-20T09:00:07;102200.59;;;24.67;56.61
61710;BME280;47633;51.494;5.386;2023-08-20T09:02:32;102199.78;;;24.66;56.72
61710;BME280;47633;51.494;5.386;2023-08-20T09:04:58;102203.13;;;24.68;56.50
61710;BME280;47633;51.494;5.386;2023-08-20T09:07:23;102209.28;;;24.69;56.95
61710;BME280;47633;51.494;5.386;2023-08-20T09:09:48;102208.31;;;24.70;56.56
61710;BME280;47633;51.494;5.386;2023-08-20T09:12:16;102202.16;;;24.69;56.53
61710;BME280;47633;51.494;5.386;2023-08-20T09:14:52;102210.16;;;24.69;56.95
61710;BME280;47633;51.494;5.386;2023-08-20T09:17:18;102203.84;;;24.70;56.77
61710;BME280;47633;51.494;5.386;2023-08-20T09:19:45;102211.81;;;24.70;56.54
61710;BME280;47633;51.494;5.386;2023-08-20T09:22:14;102207.38;;;24.71;56.74
61710;BME280;47633;51.494;5.386;2023-08-20T09:24:41;102206.38;;;24.72;57.19
61710;BME280;47633;51.494;5.386;2023-08-20T09:27:10;102203.69;;;24.72;56.83
61710;BME280;47633;51.494;5.386;2023-08-20T09:32:16;102210.72;;;24.73;56.86
61710;BME280;47633;51.494;5.386;2023-08-20T09:34:41;102207.09;;;24.74;56.74
61710;BME280;47633;51.494;5.386;2023-08-20T09:37:10;102206.38;;;24.72;57.01
61710;BME280;47633;51.494;5.386;2023-08-20T09:39:37;102205.25;;;24.74;56.81
61710;BME280;47633;51.494;5.386;2023-08-20T09:42:04;102213.13;;;24.76;57.14
61710;BME280;47633;51.494;5.386;2023-08-20T09:44:33;102209.03;;;24.72;56.71
61710;BME280;47633;51.494;5.386;2023-08-20T09:47:12;102211.25;;;24.67;56.74
61710;BME280;47633;51.494;5.386;2023-08-20T09:49:45;102207.19;;;24.62;57.43
61710;BME280;47633;51.494;5.386;2023-08-20T09:52:15;102208.16;;;24.61;57.07
61710;BME280;47633;51.494;5.386;2023-08-20T09:57:18;102210.41;;;24.56;56.80
61710;BME280;47633;51.494;5.386;2023-08-20T09:59:47;102213.91;;;24.57;56.93
61710;BME280;47633;51.494;5.386;2023-08-20T10:02:14;102215.72;;;24.56;56.52
61710;BME280;47633;51.494;5.386;2023-08-20T10:04:39;102214.84;;;24.56;56.20
61710;BME280;47633;51.494;5.386;2023-08-20T10:07:05;102204.44;;;24.53;55.53
61710;BME280;47633;51.494;5.386;2023-08-20T10:09:31;102208.94;;;24.52;55.35
61710;BME280;47633;51.494;5.386;2023-08-20T10:11:57;102201.78;;;24.53;55.76
61710;BME280;47633;51.494;5.386;2023-08-20T10:14:22;102213.91;;;24.57;55.86
61710;BME280;47633;51.494;5.386;2023-08-20T10:16:47;102202.50;;;24.55;55.97
61710;BME280;47633;51.494;5.386;2023-08-20T10:19:15;102206.00;;;24.55;56.58
61710;BME280;47633;51.494;5.386;2023-08-20T10:21:44;102216.94;;;24.52;56.17
61710;BME280;47633;51.494;5.386;2023-08-20T10:24:16;102208.38;;;24.49;56.72
61710;BME280;47633;51.494;5.386;2023-08-20T10:26:41;102208.50;;;24.47;56.38
61710;BME280;47633;51.494;5.386;2023-08-20T10:29:36;102209.47;;;24.46;56.36
61710;BME280;47633;51.494;5.386;2023-08-20T10:32:09;102208.63;;;24.45;56.52
61710;BME280;47633;51.494;5.386;2023-08-20T10:34:36;102208.50;;;24.47;56.69
61710;BME280;47633;51.494;5.386;2023-08-20T10:37:09;102206.94;;;24.44;56.97
61710;BME280;47633;51.494;5.386;2023-08-20T10:39:35;102215.06;;;24.43;56.95
61710;BME280;47633;51.494;5.386;2023-08-20T10:45:06;102208.91;;;24.42;57.10
61710;BME280;47633;51.494;5.386;2023-08-20T10:47:42;102214.22;;;24.42;57.23
61710;BME280;47633;51.494;5.386;2023-08-20T10:50:08;102213.25;;;24.43;57.63
61710;BME280;47633;51.494;5.386;2023-08-20T10:52:39;102209.59;;;24.44;57.25
61710;BME280;47633;51.494;5.386;2023-08-20T10:55:07;102196.84;;;24.48;57.51
61710;BME280;47633;51.494;5.386;2023-08-20T10:57:34;102200.66;;;24.45;57.24
61710;BME280;47633;51.494;5.386;2023-08-20T11:00:02;102212.97;;;24.47;56.98
61710;BME280;47633;51.494;5.386;2023-08-20T11:02:31;102211.16;;;24.47;56.16
61710;BME280;47633;51.494;5.386;2023-08-20T11:04:57;102208.63;;;24.45;56.49
61710;BME280;47633;51.494;5.386;2023-08-20T11:07:23;102206.94;;;24.44;56.13
61710;BME280;47633;51.494;5.386;2023-08-20T11:09:50;102204.00;;;24.48;56.60
61710;BME280;47633;51.494;5.386;2023-08-20T11:12:15;102204.31;;;24.54;56.95
61710;BME280;47633;51.494;5.386;2023-08-20T11:14:41;102199.59;;;24.58;56.86
61710;BME280;47633;51.494;5.386;2023-08-20T11:17:06;102201.00;;;24.62;57.30
61710;BME280;47633;51.494;5.386;2023-08-20T11:19:33;102203.66;;;24.62;57.39
61710;BME280;47633;51.494;5.386;2023-08-20T11:21:59;102201.28;;;24.59;57.28
61710;BME280;47633;51.494;5.386;2023-08-20T11:24:28;102207.91;;;24.65;56.74
61710;BME280;47633;51.494;5.386;2023-08-20T11:26:54;102200.47;;;24.68;56.91
61710;BME280;47633;51.494;5.386;2023-08-20T11:29:20;102196.69;;;24.71;56.69
61710;BME280;47633;51.494;5.386;2023-08-20T11:31:47;102188.56;;;24.72;56.74
61710;BME280;47633;51.494;5.386;2023-08-20T11:34:12;102192.19;;;24.71;56.59
61710;BME280;47633;51.494;5.386;2023-08-20T11:36:40;102190.63;;;24.69;56.85
61710;BME280;47633;51.494;5.386;2023-08-20T11:39:09;102192.47;;;24.68;57.12
61710;BME280;47633;51.494;5.386;2023-08-20T11:41:39;102191.38;;;24.71;57.14
61710;BME280;47633;51.494;5.386;2023-08-20T11:44:05;102192.06;;;24.73;56.64
61710;BME280;47633;51.494;5.386;2023-08-20T11:46:33;102187.00;;;24.70;57.01
61710;BME280;47633;51.494;5.386;2023-08-20T11:49:08;102184.47;;;24.68;57.04
61710;BME280;47633;51.494;5.386;2023-08-20T11:51:41;102184.19;;;24.71;56.67
61710;BME280;47633;51.494;5.386;2023-08-20T11:54:08;102169.31;;;24.69;56.73
61710;BME280;47633;51.494;5.386;2023-08-20T11:56:34;102177.19;;;24.70;56.79
61710;BME280;47633;51.494;5.386;2023-08-20T11:59:00;102174.38;;;24.72;57.13
61710;BME280;47633;51.494;5.386;2023-08-20T12:01:31;102158.53;;;24.70;56.55
61710;BME280;47633;51.494;5.386;2023-08-20T12:04:04;102149.69;;;24.70;56.63
61710;BME280;47633;51.494;5.386;2023-08-20T12:06:30;102152.91;;;24.73;56.69
61710;BME280;47633;51.494;5.386;2023-08-20T12:08:56;102155.44;;;24.75;56.50
61710;BME280;47633;51.494;5.386;2023-08-20T12:11:29;102149.41;;;24.73;56.89
61710;BME280;47633;51.494;5.386;2023-08-20T12:13:55;102149.28;;;24.74;56.82
61710;BME280;47633;51.494;5.386;2023-08-20T12:16:22;102150.84;;;24.77;56.84
61710;BME280;47633;51.494;5.386;2023-08-20T12:18:48;102149.16;;;24.76;56.78
61710;BME280;47633;51.494;5.386;2023-08-20T12:21:14;102144.22;;;24.81;56.24
61710;BME280;47633;51.494;5.386;2023-08-20T12:23:39;102153.66;;;24.85;56.49
61710;BME280;47633;51.494;5.386;2023-08-20T12:26:04;102141.16;;;24.86;56.13
61710;BME280;47633;51.494;5.386;2023-08-20T12:28:30;102143.69;;;24.87;56.19
61710;BME280;47633;51.494;5.386;2023-08-20T12:30:55;102139.03;;;24.89;56.20
61710;BME280;47633;51.494;5.386;2023-08-20T12:33:22;102139.19;;;24.88;56.75
61710;BME280;47633;51.494;5.386;2023-08-20T12:35:47;102140.88;;;24.89;56.75
61710;BME280;47633;51.494;5.386;2023-08-20T12:38:12;102141.72;;;24.89;56.62
61710;BME280;47633;51.494;5.386;2023-08-20T12:40:38;102143.28;;;24.92;56.62
61710;BME280;47633;51.494;5.386;2023-08-20T12:43:03;102147.78;;;24.91;56.57
61710;BME280;47633;51.494;5.386;2023-08-20T12:45:29;102151.28;;;24.92;56.30
61710;BME280;47633;51.494;5.386;2023-08-20T12:47:54;102144.09;;;24.92;56.85
61710;BME280;47633;51.494;5.386;2023-08-20T12:50:20;102148.59;;;24.92;56.66
61710;BME280;47633;51.494;5.386;2023-08-20T12:52:45;102146.78;;;24.92;56.85
61710;BME280;47633;51.494;5.386;2023-08-20T12:55:12;102142.16;;;24.94;56.70
61710;BME280;47633;51.494;5.386;2023-08-20T12:57:54;102143.00;;;24.95;56.70
61710;BME280;47633;51.494;5.386;2023-08-20T13:00:21;102143.69;;;24.97;56.49
61710;BME280;47633;51.494;5.386;2023-08-20T13:02:47;102143.56;;;24.98;56.62